• Join FlightAware (Why Join?)
  • Login
  • US Flag 
08:26AM EDT


 

Airport Tracker/Info


-or-


 

Live Flight TrackerFlight Track Log ✈ AVA43 ✈ 15-Jun-2013 ✈ KJFK - SKRG / MDE

Flight Track Log - Related Links

Times and Time Zones

All times are in EDT time to prevent confusion due to time zone crossing. See the AVA43 flight status page for this flight to view local times or setup timezone preferences in your user account.

Time Position Orientation Groundspeed Altitude Reporting Facility
EDT Latitude Longitude Course Direction KTS MPH feet Rate Location/Type
09:27AM 40.6167 -73.8833 223° Southwest 220 253 2,400  Level New York TRACON
09:29AM 40.5417 -73.7942 138° Southeast 214 246 5,100 1,620 Climbing New York Center
09:30AM 40.5236 -73.6897 103° East 271 312 7,100 2,100 Climbing New York Center
09:31AM 40.4606 -73.6214 140° Southeast 279 321 9,400 1,980 Climbing New York Center
09:32AM 40.3875 -73.5450 141° Southeast 316 364 11,100 1,500 Climbing New York Center
09:33AM 40.0362 -73.3066 223° Southwest  Level FlightAware Approximate
09:33AM 40.3058 -73.4653 143° Southeast 354 407 12,400  Level New York Center
09:34AM 40.2142 -73.3750 143° Southeast 392 451 14,600 1,920 Climbing New York Center
09:35AM 40.1178 -73.3006 149° Southeast 400 460 16,300 1,560 Climbing New York Center
09:37AM 39.9111 -73.4600 211° Southwest 360 414 19,700 1,560 Climbing Washington Center
09:38AM 39.8275 -73.5597 223° Southwest 388 447 21,300 1,260 Climbing Washington Center
09:39AM 39.7333 -73.6622 220° Southwest 417 480 22,200 1,140 Climbing Washington Center
09:40AM 39.6392 -73.7672 221° Southwest 436 502 23,600 1,260 Climbing Washington Center
09:41AM 39.5450 -73.8747 221° Southwest 455 524 24,800 1,140 Climbing Washington Center
09:42AM 39.4464 -73.9792 219° Southwest 455 524 25,900 1,020 Climbing Washington Center
09:43AM 39.3456 -74.0886 220° Southwest 467 537 26,900 1,080 Climbing Washington Center
09:44AM 39.2447 -74.1981 220° Southwest 473 544 28,100 840 Climbing Washington Center
09:45AM 39.1439 -74.3069 220° Southwest 468 539 28,700 600 Climbing Washington Center
09:46AM 39.0408 -74.4211 221° Southwest 485 558 29,300 720 Climbing Washington Center
09:47AM 38.9336 -74.5350 220° Southwest 493 567 30,200 1,080 Climbing Washington Center
09:48AM 38.8283 -74.6511 221° Southwest 500 575 31,500 1,020 Climbing Washington Center
09:49AM 38.7247 -74.7614 220° Southwest 495 570 32,300 840 Climbing Washington Center
09:50AM 38.6214 -74.8689 219° Southwest 495 570 33,200 720 Climbing Washington Center
09:51AM 38.5178 -74.9814 220° Southwest 495 570 33,800 600 Climbing Washington Center
09:52AM 38.4078 -75.0856 217° Southwest 495 570 34,500 540 Climbing Washington Center
09:53AM 38.2850 -75.1711 209° Southwest 495 570 34,900 300 Climbing Washington Center
09:54AM 38.1581 -75.2536 207° Southwest 500 575 35,200 480 Climbing Washington Center
09:55AM 38.0331 -75.3333 207° Southwest 505 581 35,900 360 Climbing Washington Center
09:56AM 37.9081 -75.4156 207° Southwest 511 588 36,000  Climbing Washington Center
09:57AM 37.7789 -75.4944 206° Southwest 511 588 35,900  Descending Washington Center
09:58AM 37.6517 -75.5761 207° Southwest 511 588 36,000  Climbing Washington Center
09:59AM 37.5267 -75.6600 208° Southwest 511 588 36,000  Level Washington Center
10:00AM 37.3972 -75.7383 206° Southwest 511 588 36,000 -60 Level Washington Center
10:01AM 37.2697 -75.8189 207° Southwest 511 588 35,900 -60 Descending Washington Center
10:02AM 37.1403 -75.8992 206° Southwest 511 588 35,900  Level Washington Center
10:03AM 37.0169 -75.9794 207° Southwest 511 588 36,000  Climbing Washington Center
10:04AM 36.8875 -76.0231 195° South 524 603 36,000  Level Washington Center
10:05AM 36.7433 -76.0636 193° South 529 609 36,000  Level Washington Center
10:06AM 36.5992 -76.1067 193° South 534 615 36,000  Level Washington Center
10:07AM 36.4594 -76.1447 192° South 529 609 36,000  Level Washington Center
10:08AM 36.3172 -76.1875 194° South 524 603 36,000 -60 Level Washington Center
10:09AM 36.1753 -76.2250 192° South 524 603 35,900 -60 Descending Washington Center
10:10AM 36.0331 -76.2625 192° South 530 610 35,900  Level Washington Center
10:11AM 35.8911 -76.3047 194° South 525 604 35,900  Level Washington Center
10:12AM 35.7511 -76.3419 192° South 525 604 36,000  Climbing Washington Center
10:13AM 35.6108 -76.3842 194° South 525 604 36,000 -60 Level Washington Center
10:14AM 35.4689 -76.4183 191° South 525 604 35,900  Descending Washington Center
10:15AM 35.3267 -76.4628 194° South 525 604 36,000  Climbing Washington Center
10:16AM 35.1739 -76.5069 193° South 525 604 36,000 -60 Level Washington Center
10:17AM 35.0444 -76.5433 193° South 525 604 35,900  Descending Washington Center
10:18AM 34.9000 -76.5822 192° South 525 604 36,000  Climbing Washington Center
10:19AM 34.7558 -76.6183 192° South 530 610 36,000  Level Washington Center
10:20AM 34.6094 -76.6594 193° South 530 610 36,000 -60 Level Washington Center
10:21AM 34.4714 -76.7006 194° South 525 604 35,900 -60 Descending Washington Center
10:22AM 34.3228 -76.7389 192° South 530 610 35,900  Level Washington Center
10:23AM 34.1786 -76.7744 192° South 530 610 35,900  Level Washington Center
10:24AM 34.0342 -76.8150 193° South 530 610 36,000  Climbing Washington Center
10:25AM 33.8878 -76.8553 193° South 530 610 36,000  Level Washington Center
10:27AM 33.5728 -76.9378 192° South 530 610 36,000 -60 Level Jacksonville Center
10:28AM 33.4283 -76.9747 192° South 535 616 35,900  Descending Jacksonville Center
10:29AM 33.2700 -77.0200 193° South 535 616 36,000  Climbing Jacksonville Center
10:30AM 33.1275 -77.0544 191° South 535 616 36,000  Level Jacksonville Center
10:31AM 32.9811 -77.0911 192° South 535 616 36,000  Level Jacksonville Center
10:32AM 32.8367 -77.1300 193° South 541 623 36,000  Level Jacksonville Center
10:33AM 32.6922 -77.1664 192° South 541 623 36,000 -60 Level Jacksonville Center
10:34AM 32.5478 -77.2025 192° South 541 623 35,900 -60 Descending Jacksonville Center
10:35AM 32.4036 -77.2411 193° South 541 623 35,900  Level Jacksonville Center
10:36AM 32.2633 -77.2769 192° South 536 617 35,900  Level Jacksonville Center
10:37AM 32.1208 -77.3150 193° South 536 617 36,000  Climbing Jacksonville Center
10:38AM 31.9744 -77.3508 192° South 531 611 36,000  Level Jacksonville Center
10:39AM 31.8300 -77.3889 193° South 537 618 36,000 -60 Level Jacksonville Center
10:40AM 31.6875 -77.4267 193° South 537 618 35,900  Descending Jacksonville Center
10:41AM 31.5450 -77.4619 192° South 537 618 36,000  Climbing Jacksonville Center
10:42AM 31.4006 -77.4994 192° South 537 618 36,000 -60 Level Jacksonville Center
10:43AM 31.2619 -77.5294 190° South 527 606 35,900 -60 Descending Jacksonville Center
10:44AM 31.1192 -77.5617 191° South 522 601 35,900  Level Jacksonville Center
10:45AM 30.9789 -77.5986 193° South 522 601 35,900  Level Jacksonville Center
10:46AM 30.8364 -77.6358 193° South 522 601 36,000  Climbing Jacksonville Center
10:48AM 30.6344 -77.6969 195° South 500 575 35,900  Descending Miami Center
10:49AM 30.4778 -77.7317 191° South 520 598 36,000  Climbing Miami Center
10:50AM 30.3400 -77.7497 186° South 526 605 36,000  Level Miami Center
10:51AM 30.1964 -77.7486 180° South 521 600 36,000  Level Miami Center
10:52AM 30.0589 -77.7403 177° South 516 594 36,000  Level Miami Center
10:53AM 29.9128 -77.7294 176° South 509 586 36,000 -60 Level Miami Center
10:54AM 29.7794 -77.7236 178° South 507 583 35,900  Descending Miami Center
10:55AM 29.6378 -77.7156 177° South 502 578 36,000  Climbing Miami Center
10:56AM 29.5064 -77.7097 178° South 501 577 36,000  Level Miami Center
10:57AM 29.3708 -77.7014 177° South 485 558 36,000  Level Miami Center
10:58AM 29.2372 -77.6933 177° South 485 558 36,000 -60 Level Miami Center
10:59AM 29.1039 -77.6853 177° South 485 558 35,900 -60 Descending Miami Center
11:00AM 28.9642 -77.6794 178° South 485 558 35,900  Level Miami Center
11:01AM 28.8325 -77.6736 178° South 490 564 36,000  Climbing Miami Center
11:02AM 28.7033 -77.6633 176° South 482 555 36,000  Level Miami Center
11:03AM 28.5656 -77.6575 178° South 477 549 36,000  Level Miami Center
11:04AM 28.4361 -77.6494 177° South 483 556 36,000 -60 Level Miami Center
11:05AM 28.3025 -77.6439 178° South 484 557 35,900 -60 Descending Miami Center
11:06AM 28.1689 -77.6358 177° South 474 545 35,900  Level Miami Center
11:07AM 28.0397 -77.6303 178° South 485 558 36,000  Climbing Miami Center
11:08AM 27.9061 -77.6247 178° South 473 544 36,000  Level Miami Center
11:09AM 27.7744 -77.6169 177° South 473 544 36,000 -60 Level Miami Center
11:10AM 27.6450 -77.6089 177° South 473 544 35,900  Descending Miami Center
11:11AM 27.5281 -77.6128 182° South 473 544 36,000  Climbing Miami Center
11:12AM 27.4008 -77.6050 177° South 473 544 36,000  Level Miami Center
11:13AM 27.2714 -77.5831 171° South 473 544 36,000  Level Miami Center
11:14AM 27.1356 -77.5822 180° South 473 544 36,000  Level Miami Center
11:15AM 27.0083 -77.5700 175° South 478 550 36,100  Climbing Miami Center
11:16AM 26.8808 -77.5622 177° South 473 544 36,000  Descending Miami Center
11:17AM 26.7556 -77.5592 179° South 468 539 36,100 300 Climbing Miami Center
11:18AM 26.6239 -77.5489 176° South 462 532 36,700 420 Climbing Miami Center
11:19AM 26.4986 -77.5389 176° South 462 532 37,000 120 Climbing Miami Center
11:20AM 26.3692 -77.5314 177° South 462 532 37,000  Level Miami Center
11:21AM 26.2397 -77.5236 177° South 462 532 37,000  Level Miami Center
11:22AM 26.1081 -77.5136 176° South 467 537 37,000  Level Miami Center
11:23AM 25.9786 -77.5061 177° South 467 537 37,000  Level Miami Center
11:24AM 25.8511 -77.4983 177° South 467 537 37,000  Level Miami Center
11:25AM 25.7214 -77.4908 177° South 467 537 37,000  Level Miami Center
11:26AM 25.5919 -77.4808 176° South 467 537 37,000  Level Miami Center
11:27AM 25.4458 -77.4733 177° South 467 537 37,000  Level Miami Center
11:28AM 25.3183 -77.4633 176° South 467 537 37,000  Level Miami Center
11:29AM 25.1908 -77.4558 177° South 462 532 37,000  Level Miami Center
11:30AM 25.0675 -77.4508 178° South 467 537 37,000  Level Miami Center
11:31AM 24.9172 -77.4386 176° South 492 566 37,000  Level Miami Center
11:32AM 24.7856 -77.4333 178° South 497 572 37,000  Level Miami Center
11:33AM 24.6561 -77.4258 177° South 481 554 37,000  Level Miami Center
11:34AM 24.5286 -77.4161 176° South 471 542 37,000  Level Miami Center
11:35AM 24.3989 -77.4089 177° South 471 542 37,000  Level Miami Center
11:36AM 24.2694 -77.4014 177° South 466 536 37,000  Level Miami Center
11:37AM 24.1400 -77.3917 176° South 466 536 37,000  Level Miami Center
11:38AM 24.0125 -77.3867 178° South 466 536 37,000  Level Miami Center
11:39AM 23.8850 -77.3817 178° South 461 531 37,000  Level Miami Center
11:40AM 23.7597 -77.3697 175° South 456 525 37,000  Level Miami Center
11:41AM 23.6342 -77.3669 179° South 456 525 37,000  Level Miami Center
11:43AM 23.4460 -77.3444 176° South  Level FlightAware Approximate
11:50AM 22.5658 -77.2746 176° South  Level FlightAware Approximate
11:51AM 22.4400 -77.2647 176° South  Level FlightAware Approximate
11:52AM 22.3143 -77.2548 176° South  Level FlightAware Approximate
11:53AM 22.1885 -77.2449 176° South  Level FlightAware Approximate
11:54AM 22.0628 -77.2351 176° South  Level FlightAware Approximate
11:55AM 21.9370 -77.2253 176° South  Level FlightAware Approximate
11:56AM 21.8113 -77.2154 176° South  Level FlightAware Approximate
11:57AM 21.6855 -77.2057 176° South  Level FlightAware Approximate
11:58AM 21.5598 -77.1959 176° South  Level FlightAware Approximate
11:59AM 21.4340 -77.1861 176° South  Level FlightAware Approximate
12:00PM 21.3083 -77.1764 176° South  Level FlightAware Approximate
12:01PM 21.1825 -77.1667 176° South  Level FlightAware Approximate
12:02PM 21.0568 -77.1570 176° South  Level FlightAware Approximate
12:03PM 20.9310 -77.1473 176° South  Level FlightAware Approximate
12:04PM 20.8053 -77.1376 176° South  Level FlightAware Approximate
12:05PM 20.6795 -77.1281 176° South  Level FlightAware Approximate
12:06PM 20.5537 -77.1188 176° South  Level FlightAware Approximate
12:07PM 20.4280 -77.1095 176° South  Level FlightAware Approximate
12:08PM 20.3022 -77.1002 176° South  Level FlightAware Approximate
12:09PM 20.1773 -77.0818 172° South  Level FlightAware Approximate
12:10PM 20.0524 -77.0633 172° South  Level FlightAware Approximate
12:11PM 19.9275 -77.0448 172° South  Level FlightAware Approximate
12:12PM 19.8027 -77.0264 172° South  Level FlightAware Approximate
12:13PM 19.6778 -77.0080 172° South  Level FlightAware Approximate
12:14PM 19.5529 -76.9896 172° South  Level FlightAware Approximate
12:15PM 19.4280 -76.9712 172° South  Level FlightAware Approximate
12:16PM 19.3031 -76.9529 172° South  Level FlightAware Approximate
12:17PM 19.1781 -76.9358 173° South  Level FlightAware Approximate
12:18PM 19.0530 -76.9189 173° South  Level FlightAware Approximate
12:19PM 18.9280 -76.9020 173° South  Level FlightAware Approximate
12:20PM 18.8029 -76.8852 173° South  Level FlightAware Approximate
12:21PM 18.6778 -76.8684 173° South  Level FlightAware Approximate
12:22PM 18.5527 -76.8516 173° South  Level FlightAware Approximate
12:23PM 18.4277 -76.8349 173° South  Level FlightAware Approximate
12:24PM 18.3026 -76.8181 173° South  Level FlightAware Approximate
12:25PM 18.1775 -76.8014 173° South  Level FlightAware Approximate
12:26PM 18.0525 -76.7848 173° South  Level FlightAware Approximate
12:27PM 17.9274 -76.7681 173° South  Level FlightAware Approximate
12:28PM 17.8052 -76.7356 165° South  Level FlightAware Approximate
12:29PM 17.6834 -76.7017 165° South  Level FlightAware Approximate
12:30PM 17.5615 -76.6679 165° South  Level FlightAware Approximate
12:31PM 17.4396 -76.6341 165° South  Level FlightAware Approximate
12:32PM 17.3177 -76.6003 165° South  Level FlightAware Approximate
12:33PM 17.1958 -76.5666 165° South  Level FlightAware Approximate
12:34PM 17.0739 -76.5329 165° South  Level FlightAware Approximate
12:35PM 16.9520 -76.4993 165° South  Level FlightAware Approximate
12:36PM 16.8301 -76.4657 165° South  Level FlightAware Approximate
12:37PM 16.7082 -76.4322 165° South  Level FlightAware Approximate
12:38PM 16.5863 -76.3987 165° South  Level FlightAware Approximate
12:39PM 16.4643 -76.3652 165° South  Level FlightAware Approximate
12:40PM 16.3424 -76.3318 165° South  Level FlightAware Approximate
12:41PM 16.2204 -76.2984 165° South  Level FlightAware Approximate
12:42PM 16.0985 -76.2651 165° South  Level FlightAware Approximate
12:43PM 15.9766 -76.2318 165° South  Level FlightAware Approximate
12:44PM 15.8546 -76.1985 165° South  Level FlightAware Approximate
12:45PM 15.7326 -76.1653 165° South  Level FlightAware Approximate
12:46PM 15.6107 -76.1322 165° South  Level FlightAware Approximate
12:47PM 15.4887 -76.0990 165° South  Level FlightAware Approximate
12:48PM 15.3667 -76.0659 165° South  Level FlightAware Approximate
12:49PM 15.2447 -76.0329 165° South  Level FlightAware Approximate
12:50PM 15.1228 -75.9998 165° South  Level FlightAware Approximate
12:51PM 15.0008 -75.9669 165° South  Level FlightAware Approximate
12:52PM 14.8789 -75.9333 165° South  Level FlightAware Approximate
12:53PM 14.7571 -75.8998 165° South  Level FlightAware Approximate
12:54PM 14.6352 -75.8663 165° South  Level FlightAware Approximate
12:55PM 14.5134 -75.8329 165° South  Level FlightAware Approximate
12:56PM 14.3915 -75.7995 165° South  Level FlightAware Approximate
12:57PM 14.2697 -75.7661 165° South  Level FlightAware Approximate
12:58PM 14.1478 -75.7328 165° South  Level FlightAware Approximate
12:59PM 14.0259 -75.6995 165° South  Level FlightAware Approximate
01:00PM 13.9038 -75.6671 166° South  Level FlightAware Approximate
01:01PM 13.7816 -75.6354 166° South  Level FlightAware Approximate
01:02PM 13.6593 -75.6038 166° South  Level FlightAware Approximate
01:03PM 13.5370 -75.5722 166° South  Level FlightAware Approximate
01:04PM 13.4147 -75.5406 166° South  Level FlightAware Approximate
01:05PM 13.2924 -75.5091 166° South  Level FlightAware Approximate
01:06PM 13.1701 -75.4776 166° South  Level FlightAware Approximate
01:07PM 13.0478 -75.4461 166° South  Level FlightAware Approximate
01:08PM 12.9256 -75.4145 165° South  Level FlightAware Approximate
01:09PM 12.8039 -75.3807 165° South  Level FlightAware Approximate
01:10PM 12.6822 -75.3468 165° South  Level FlightAware Approximate
01:11PM 12.5605 -75.3130 165° South  Level FlightAware Approximate
01:12PM 12.4388 -75.2793 165° South  Level FlightAware Approximate
01:13PM 12.3171 -75.2458 166° South  Level FlightAware Approximate
01:14PM 12.1949 -75.2141 166° South  Level FlightAware Approximate
01:15PM 12.0726 -75.1824 166° South  Level FlightAware Approximate
01:16PM 11.9504 -75.1507 166° South  Level FlightAware Approximate
01:17PM 11.8282 -75.1191 166° South  Level FlightAware Approximate
01:18PM 11.7060 -75.0875 166° South  Level FlightAware Approximate
01:19PM 11.5837 -75.0560 166° South  Level FlightAware Approximate
01:20PM 11.4615 -75.0245 166° South  Level FlightAware Approximate
01:21PM 11.3393 -74.9929 166° South  Level FlightAware Approximate
01:22PM 11.2170 -74.9615 166° South  Level FlightAware Approximate
01:23PM 11.0948 -74.9300 166° South  Level FlightAware Approximate
01:24PM 10.9725 -74.8986 166° South  Level FlightAware Approximate
01:25PM 10.8503 -74.8672 166° South  Level FlightAware Approximate
01:26PM 10.7263 -74.8494 179° South  Level FlightAware Approximate
01:27PM 10.6002 -74.8480 179° South  Level FlightAware Approximate
01:28PM 10.4742 -74.8465 179° South  Level FlightAware Approximate
01:29PM 10.3481 -74.8452 179° South  Level FlightAware Approximate
01:30PM 10.2220 -74.8438 179° South  Level FlightAware Approximate
01:31PM 10.0960 -74.8423 179° South  Level FlightAware Approximate
01:32PM 9.9699 -74.8410 179° South  Level FlightAware Approximate
01:33PM 9.8438 -74.8395 179° South  Level FlightAware Approximate
01:34PM 9.7177 -74.8382 179° South  Level FlightAware Approximate
01:35PM 9.5917 -74.8367 179° South  Level FlightAware Approximate
01:36PM 9.4656 -74.8354 179° South  Level FlightAware Approximate
01:37PM 9.3395 -74.8339 179° South  Level FlightAware Approximate
01:38PM 9.2143 -74.8443 189° South  Level FlightAware Approximate
01:39PM 9.0897 -74.8639 189° South  Level FlightAware Approximate
01:40PM 8.9652 -74.8836 189° South  Level FlightAware Approximate
01:41PM 8.8406 -74.9033 189° South  Level FlightAware Approximate
01:42PM 8.7160 -74.9229 189° South  Level FlightAware Approximate
01:43PM 8.5915 -74.9431 189° South  Level FlightAware Approximate
01:44PM 8.4671 -74.9638 189° South  Level FlightAware Approximate
01:45PM 8.3425 -74.9832 189° South  Level FlightAware Approximate
01:46PM 8.2179 -75.0024 189° South  Level FlightAware Approximate
01:47PM 8.0932 -75.0216 189° South  Level FlightAware Approximate
01:48PM 7.9696 -75.0402 206° Southwest  Level FlightAware Approximate
01:49PM 7.8467 -75.0638 188° South  Level FlightAware Approximate
01:50PM 7.7217 -75.0804 188° South  Level FlightAware Approximate
01:51PM 7.5966 -75.0928 190° South  Level FlightAware Approximate
01:52PM 7.4724 -75.1147 190° South  Level FlightAware Approximate
01:53PM 7.3482 -75.1360 188° South  Level FlightAware Approximate
01:54PM 7.2233 -75.1538 188° South  Level FlightAware Approximate
01:55PM 7.0985 -75.1717 188° South  Level FlightAware Approximate
01:56PM 6.9743 -75.1928 192° South  Level FlightAware Approximate
01:57PM 6.8508 -75.2182 186° South  Level FlightAware Approximate
01:58PM 6.7254 -75.2308 186° South  Level FlightAware Approximate
01:59PM 6.6006 -75.2486 189° South  Level FlightAware Approximate
02:00PM 6.4760 -75.2681 191° South  Level FlightAware Approximate
02:01PM 6.3524 -75.2929 191° South  Level FlightAware Approximate
02:02PM 6.2272 -75.3015 194° South  Level FlightAware Approximate
02:03PM 6.1574 -75.3799 259° West  Level FlightAware Approximate
02:04PM 6.1500 -75.4167 259° West  Level FlightAware Approximate
02:05PM 6.1645 -75.4231 259° West  Level Estimated
02:06PM 6.1645 -75.4231 259° West  Level Estimated
02:07PM 6.1645 -75.4231 259° West  Level Estimated
02:08PM 6.1645 -75.4231 259° West  Level Estimated
02:09PM 6.1645 -75.4231 259° West  Level Estimated
02:10PM 6.1645 -75.4231 259° West  Level Estimated
02:11PM 6.1645 -75.4231 259° West  Level Estimated
02:12PM 6.1645 -75.4231 259° West  Level Estimated
02:13PM 6.1645 -75.4231 259° West  Level Estimated
02:14PM 6.1645 -75.4231 259° West  Level Estimated
02:15PM 6.1645 -75.4231 259° West  Level Estimated
02:16PM 6.1645 -75.4231 259° West  Level Estimated
02:17PM 6.1645 -75.4231 259° West  Level Estimated
02:18PM 6.1645 -75.4231 259° West  Level Estimated
02:19PM 6.1645 -75.4231 259° West  Level Estimated
02:20PM 6.1645 -75.4231 259° West  Level Estimated
02:21PM 6.1645 -75.4231 259° West  Level Estimated
02:22PM 6.1645 -75.4231 259° West  Level Estimated
02:23PM 6.1645 -75.4231 259° West  Level Estimated
02:24PM 6.1645 -75.4231 259° West  Level Estimated
02:25PM 6.1645 -75.4231 259° West  Level Estimated
02:26PM 6.1645 -75.4231 259° West  Level Estimated
02:27PM 6.1645 -75.4231 259° West  Level Estimated